Time;durP1;ratioP1;P1;durP2;ratioP2;P2;SDS_P1;SDS_P2;PMS_P1;PMS_P2;Temp;Humidity;BMP_temperature;BMP_pressure;BME280_temperature;BME280_humidity;BME280_pressure;Samples;Min_cycle;Max_cycle;Signal;HPM_P1;HPM_P2
2021/08/01 00:00:31;;;;;;;12.33;8.90;;;;;;;21.63;97.25;99555.75;6231787;28;20045;-87
2021/08/01 00:03:32;;;;;;;13.17;10.03;;;;;;;21.64;96.98;99561.88;6249055;28;20188;-87
2021/08/01 00:06:32;;;;;;;14.20;9.05;;;;;;;21.60;96.83;99555.25;6231470;28;20081;-87
2021/08/01 00:09:33;;;;;;;11.40;9.20;;;;;;;21.49;97.25;99544.06;6231735;28;20044;-87
2021/08/01 00:12:35;;;;;;;11.23;9.60;;;;;;;21.43;97.23;99544.75;6247861;28;20131;-87
2021/08/01 00:15:36;;;;;;;;;;;;;;;21.44;97.29;99550.91;6248054;28;20065;-87
2021/08/01 00:18:37;;;;;;;12.10;9.98;;;;;;;21.47;97.64;99547.88;6248998;28;19972;-87
2021/08/01 00:21:37;;;;;;;18.53;9.50;;;;;;;21.47;97.58;99553.19;6231499;28;20064;-87
2021/08/01 00:24:38;;;;;;;11.17;9.63;;;;;;;21.48;97.92;99557.53;6215006;28;20412;-87
2021/08/01 00:27:40;;;;;;;12.27;10.47;;;;;;;21.48;98.75;99554.88;6231132;28;20489;-87
2021/08/01 00:30:41;;;;;;;13.05;9.80;;;;;;;21.49;98.23;99559.97;6248517;28;20048;-87
2021/08/01 00:33:41;;;;;;;13.23;10.63;;;;;;;21.50;98.33;99556.34;6214239;28;20054;-87
2021/08/01 00:36:42;;;;;;;12.07;10.47;;;;;;;21.48;98.62;99546.91;6231000;28;20052;-87
2021/08/01 00:39:43;;;;;;;12.10;10.80;;;;;;;21.48;98.44;99550.38;6247343;28;20065;-87
2021/08/01 00:42:43;;;;;;;13.03;10.10;;;;;;;21.50;99.02;99548.38;6230466;28;20128;-88
2021/08/01 00:45:45;;;;;;;12.53;10.30;;;;;;;21.48;98.60;99549.56;6230762;28;20042;-87
2021/08/01 00:48:45;;;;;;;11.90;9.45;;;;;;;21.46;97.96;99544.41;6247080;28;20041;-87
2021/08/01 00:51:46;;;;;;;16.07;10.13;;;;;;;21.43;98.01;99536.78;6230420;28;20084;-87
2021/08/01 00:54:47;;;;;;;11.50;10.10;;;;;;;21.36;98.61;99535.81;6230626;28;20560;-88
2021/08/01 00:57:47;;;;;;;14.87;10.90;;;;;;;21.31;98.52;99531.06;6230411;28;20049;-87
2021/08/01 01:04:42;;;;;;;11.32;9.88;;;;;;;21.26;98.08;99514.81;6247761;28;20052;-87
2021/08/01 01:08:01;;;;;;;11.55;9.50;;;;;;;21.28;98.50;99525.25;6241430;28;20136;-87
2021/08/01 01:11:05;;;;;;;11.25;9.60;;;;;;;21.17;99.18;99521.19;6246804;28;20047;-87
2021/08/01 01:14:09;;;;;;;11.38;9.50;;;;;;;21.19;98.98;99515.69;6247620;28;20052;-87
2021/08/01 01:17:12;;;;;;;13.38;10.38;;;;;;;21.17;98.91;99515.88;6246617;28;20088;-87
2021/08/01 01:20:18;;;;;;;12.77;10.23;;;;;;;21.17;98.84;99507.94;6246843;28;20046;-87
2021/08/01 01:23:40;;;;;;;16.05;10.15;;;;;;;21.14;98.86;99508.25;6229942;28;20049;-87
2021/08/01 01:26:46;;;;;;;;;;;;;;;21.18;98.91;99504.25;6247667;28;20041;-87
2021/08/01 01:29:53;;;;;;;14.23;10.45;;;;;;;21.13;99.03;99507.44;6246103;28;19925;-87
2021/08/01 01:33:05;;;;;;;12.73;10.40;;;;;;;21.11;99.41;99504.16;6247201;28;20038;-87
2021/08/01 01:36:07;;;;;;;12.65;10.55;;;;;;;21.11;99.50;99511.28;6245558;28;20042;-86
2021/08/01 01:39:08;;;;;;;14.88;10.57;;;;;;;21.10;99.41;99507.78;6245865;28;20045;-87
2021/08/01 01:42:12;;;;;;;15.40;10.85;;;;;;;21.08;100.00;99509.78;6245758;28;20037;-87
2021/08/01 01:45:17;;;;;;;15.07;11.23;;;;;;;20.93;100.00;99503.59;6228789;28;20041;-87
2021/08/01 01:48:19;;;;;;;15.45;12.70;;;;;;;20.93;100.00;99508.88;6247014;28;20498;-87
2021/08/01 01:51:20;;;;;;;14.52;11.65;;;;;;;20.87;100.00;99506.94;6245584;28;20115;-86
2021/08/01 01:54:22;;;;;;;16.17;12.57;;;;;;;20.88;100.00;99530.63;6229253;28;20042;-87
2021/08/01 01:57:22;;;;;;;14.38;12.45;;;;;;;20.92;100.00;99528.47;6212960;28;20034;-87
2021/08/01 02:00:24;;;;;;;17.03;13.47;;;;;;;20.93;100.00;99530.91;6245595;28;20045;-87
2021/08/01 02:03:25;;;;;;;20.25;13.23;;;;;;;20.91;100.00;99540.88;6229147;28;20556;-87
2021/08/01 02:06:25;;;;;;;20.77;13.07;;;;;;;20.92;100.00;99547.03;6228860;28;20051;-87
2021/08/01 02:09:49;;;;;;;15.63;13.20;;;;;;;20.92;100.00;99547.84;6212558;28;20037;-87
2021/08/01 02:12:56;;;;;;;17.98;12.25;;;;;;;20.86;100.00;99545.88;6245211;28;20037;-87
2021/08/01 02:15:59;;;;;;;16.42;11.77;;;;;;;20.89;100.00;99542.06;6246350;28;20041;-87
2021/08/01 02:19:05;;;;;;;14.98;12.35;;;;;;;20.85;100.00;99546.88;6245211;28;20124;-87
2021/08/01 02:22:07;;;;;;;14.27;12.15;;;;;;;20.90;100.00;99552.50;6245130;28;20038;-87
2021/08/01 02:25:10;;;;;;;19.58;12.82;;;;;;;20.93;100.00;99561.94;6245439;28;20404;-87
2021/08/01 02:28:12;;;;;;;16.30;12.55;;;;;;;20.95;100.00;99556.47;6228554;28;20072;-87
2021/08/01 02:31:13;;;;;;;19.38;11.75;;;;;;;20.96;100.00;99560.75;6244906;28;20073;-87
2021/08/01 02:34:14;;;;;;;18.50;12.82;;;;;;;20.90;100.00;99560.44;6228654;28;20124;-87
2021/08/01 02:37:16;;;;;;;17.98;13.25;;;;;;;20.86;100.00;99560.97;6228685;28;20426;-86
2021/08/01 02:40:17;;;;;;;14.32;12.45;;;;;;;20.89;100.00;99560.63;6246061;28;20247;-88
2021/08/01 02:43:20;;;;;;;19.40;12.67;;;;;;;20.89;100.00;99556.13;6228349;28;20423;-87
2021/08/01 02:46:28;;;;;;;15.00;11.82;;;;;;;20.87;100.00;99554.66;6245230;28;20052;-87
2021/08/01 02:49:39;;;;;;;20.73;12.35;;;;;;;20.89;100.00;99544.72;6246184;28;20038;-87
2021/08/01 02:53:02;;;;;;;15.83;11.77;;;;;;;20.86;100.00;99534.47;6245446;28;20048;-87
2021/08/01 02:56:07;;;;;;;15.73;11.85;;;;;;;20.85;100.00;99530.97;6248696;28;20294;-87
2021/08/01 02:59:08;;;;;;;15.18;11.63;;;;;;;20.81;100.00;99542.91;6250178;28;20041;-88
2021/08/01 03:02:11;;;;;;;17.05;12.32;;;;;;;20.74;100.00;99544.59;6249692;28;20057;-87
2021/08/01 03:05:13;;;;;;;15.23;12.48;;;;;;;20.71;100.00;99545.78;6250642;28;20041;-87
2021/08/01 03:08:14;;;;;;;18.90;12.68;;;;;;;20.78;100.00;99547.75;6249420;28;20041;-87
2021/08/01 03:11:22;;;;;;;16.20;12.52;;;;;;;20.76;100.00;99552.41;6216695;28;20049;-87
2021/08/01 03:14:23;;;;;;;16.05;13.13;;;;;;;20.67;100.00;99539.19;6249396;28;20053;-87
2021/08/01 03:17:23;;;;;;;16.63;13.50;;;;;;;20.62;100.00;99538.03;6249277;28;20052;-87
2021/08/01 03:20:24;;;;;;;17.50;13.27;;;;;;;20.57;100.00;99543.81;6216542;28;20053;-87
2021/08/01 03:23:25;;;;;;;19.37;13.43;;;;;;;20.60;100.00;99553.28;6249047;28;20052;-87
2021/08/01 03:26:26;;;;;;;17.17;13.00;;;;;;;20.62;100.00;99552.09;6232865;28;20091;-88
2021/08/01 03:29:27;;;;;;;18.10;13.80;;;;;;;20.62;100.00;99549.44;6232611;28;20411;-87
2021/08/01 03:32:27;;;;;;;14.57;12.60;;;;;;;20.69;100.00;99550.44;6250262;28;20049;-87
2021/08/01 03:35:28;;;;;;;15.80;12.57;;;;;;;20.71;100.00;99556.38;6232654;28;20038;-87
2021/08/01 03:38:29;;;;;;;16.33;13.23;;;;;;;20.73;100.00;99554.41;6248873;28;20076;-87
2021/08/01 03:41:29;;;;;;;24.13;13.57;;;;;;;20.77;100.00;99554.84;6248937;28;20046;-87
2021/08/01 03:44:30;;;;;;;25.60;12.77;;;;;;;20.80;100.00;99559.00;6232375;28;20132;-87
2021/08/01 03:47:31;;;;;;;17.47;13.03;;;;;;;20.78;100.00;99561.81;6248664;28;20041;-87
2021/08/01 03:50:31;;;;;;;14.60;12.47;;;;;;;20.81;100.00;99563.31;6248651;28;20112;-87
2021/08/01 03:53:32;;;;;;;19.47;12.80;;;;;;;20.78;100.00;99556.53;6232405;28;20065;-87
2021/08/01 03:56:38;;;;;;;18.03;13.40;;;;;;;20.77;100.00;99562.00;6248471;28;20394;-87
2021/08/01 03:59:39;;;;;;;16.17;12.52;;;;;;;20.76;100.00;99558.53;6248500;28;20042;-87
2021/08/01 04:02:40;;;;;;;18.27;13.17;;;;;;;20.77;100.00;99562.81;6215705;28;20056;-87
2021/08/01 04:05:40;;;;;;;17.43;12.87;;;;;;;20.82;100.00;99557.00;6215694;28;20041;-87
2021/08/01 04:08:42;;;;;;;;;;;;;;;20.86;100.00;99558.31;6249364;28;20057;-87
2021/08/01 04:11:44;;;;;;;17.10;12.48;;;;;;;20.88;100.00;99554.50;6249564;28;19921;-87
2021/08/01 04:14:44;;;;;;;19.98;12.90;;;;;;;20.87;100.00;99547.53;6232123;28;20061;-87
2021/08/01 04:17:45;;;;;;;19.17;12.97;;;;;;;20.87;100.00;99544.06;6232338;28;20407;-87
2021/08/01 04:20:46;;;;;;;15.53;13.23;;;;;;;20.86;100.00;99542.41;6215601;28;20065;-87
2021/08/01 04:23:47;;;;;;;18.27;13.67;;;;;;;20.91;100.00;99543.53;6247998;28;20049;-88
2021/08/01 04:26:47;;;;;;;16.70;13.33;;;;;;;20.92;100.00;99525.81;6232048;28;20049;-88
2021/08/01 04:29:48;;;;;;;15.83;13.37;;;;;;;20.80;100.00;99533.31;6248310;28;20041;-87
2021/08/01 04:32:49;;;;;;;16.47;14.07;;;;;;;20.82;100.00;99526.00;6215593;28;20038;-88
2021/08/01 04:35:50;;;;;;;17.37;14.10;;;;;;;20.82;100.00;99533.97;6231903;28;20044;-88
2021/08/01 04:38:51;;;;;;;15.45;13.82;;;;;;;20.78;100.00;99542.44;6231593;28;20242;-88
2021/08/01 04:41:52;;;;;;;19.77;14.23;;;;;;;20.80;100.00;99556.34;6247877;28;20041;-88
2021/08/01 04:44:53;;;;;;;;;;;;;;;20.76;100.00;99547.09;6232310;28;20439;-88
2021/08/01 04:47:54;;;;;;;21.92;14.32;;;;;;;20.77;100.00;99540.78;6231813;28;19967;-88
2021/08/01 04:50:54;;;;;;;20.37;14.40;;;;;;;20.83;100.00;99543.56;6215243;28;20041;-88
2021/08/01 04:53:55;;;;;;;21.10;14.37;;;;;;;20.92;100.00;99542.53;6198923;28;20111;-88
2021/08/01 04:56:59;;;;;;;18.40;14.70;;;;;;;20.93;100.00;99546.00;6249226;28;20116;-88
2021/08/01 05:00:09;;;;;;;19.25;13.90;;;;;;;21.04;100.00;99544.78;6254422;28;20041;-88
2021/08/01 05:03:09;;;;;;;22.10;13.57;;;;;;;21.13;100.00;99535.81;6231384;28;20054;-88
2021/08/01 05:06:10;;;;;;;16.00;13.80;;;;;;;21.23;100.00;99535.56;6215908;28;20060;-88
2021/08/01 05:09:16;;;;;;;21.35;13.95;;;;;;;21.30;100.00;99528.56;6247683;28;20052;-88
2021/08/01 05:12:17;;;;;;;17.50;14.07;;;;;;;21.36;100.00;99527.88;6198662;28;20057;-88
2021/08/01 05:15:18;;;;;;;16.70;13.40;;;;;;;21.40;100.00;99528.34;6214727;28;20045;-88
2021/08/01 05:18:22;;;;;;;18.33;14.37;;;;;;;21.46;100.00;99527.69;6230704;28;20045;-88
2021/08/01 05:21:23;;;;;;;17.85;14.80;;;;;;;21.52;100.00;99530.44;6247550;28;20040;-88
2021/08/01 05:24:24;;;;;;;17.23;13.93;;;;;;;21.53;100.00;99540.03;6247860;28;20037;-88
2021/08/01 05:27:26;;;;;;;17.17;14.07;;;;;;;21.60;100.00;99529.56;6248056;28;20073;-88
2021/08/01 05:30:27;;;;;;;18.77;14.60;;;;;;;21.67;100.00;99519.88;6214413;28;20089;-88
2021/08/01 05:33:27;;;;;;;24.83;14.67;;;;;;;21.78;100.00;99513.28;6247075;28;20067;-88
2021/08/01 05:36:30;;;;;;;20.77;14.23;;;;;;;21.89;100.00;99520.03;6229906;28;20076;-88
2021/08/01 05:39:34;;;;;;;21.05;14.20;;;;;;;21.97;100.00;99517.31;6230096;28;20041;-88
2021/08/01 05:42:35;;;;;;;18.55;14.00;;;;;;;22.03;100.00;99511.25;6246733;28;20041;-88
2021/08/01 05:45:36;;;;;;;23.73;14.53;;;;;;;22.06;100.00;99510.06;6213216;28;20192;-86
2021/08/01 05:48:37;;;;;;;20.27;14.33;;;;;;;22.14;100.00;99520.63;6212942;28;20046;-88
2021/08/01 05:51:39;;;;;;;18.10;14.23;;;;;;;22.20;100.00;99527.03;6228857;28;20037;-89
2021/08/01 05:54:39;;;;;;;16.38;12.30;;;;;;;22.22;100.00;99525.84;6245262;28;20051;-79
2021/08/01 05:57:40;;;;;;;15.00;12.60;;;;;;;22.31;100.00;99523.97;6228624;28;20041;-79
2021/08/01 06:00:41;;;;;;;22.77;12.77;;;;;;;22.41;100.00;99529.81;6212308;28;20045;-78
2021/08/01 06:03:43;;;;;;;17.00;12.77;;;;;;;22.50;100.00;99531.38;6228577;28;20053;-79
2021/08/01 06:06:43;;;;;;;16.95;11.95;;;;;;;22.58;100.00;99527.81;6212180;28;20049;-78
2021/08/01 06:09:47;;;;;;;12.50;10.73;;;;;;;22.69;98.70;99523.84;6203757;28;20516;-80
2021/08/01 06:12:47;;;;;;;13.38;10.88;;;;;;;22.74;97.87;99522.28;6204726;28;20500;-79
2021/08/01 06:15:48;;;;;;;14.13;10.27;;;;;;;22.79;98.57;99526.22;6194918;28;20045;-78
2021/08/01 06:18:49;;;;;;;14.70;10.60;;;;;;;22.82;99.44;99536.50;6208747;28;20051;-75
2021/08/01 06:21:50;;;;;;;14.93;10.33;;;;;;;22.88;100.00;99530.44;6215153;28;20302;-76
2021/08/01 06:24:51;;;;;;;18.20;11.70;;;;;;;22.96;99.23;99526.81;6231907;28;20481;-75
2021/08/01 06:27:51;;;;;;;16.58;10.85;;;;;;;23.04;98.94;99519.63;6234230;28;20481;-75
2021/08/01 06:30:52;;;;;;;17.77;10.67;;;;;;;23.17;99.61;99515.44;6219663;28;20041;-75
2021/08/01 06:33:53;;;;;;;14.13;9.38;;;;;;;23.28;98.28;99505.13;6220198;28;20038;-76
2021/08/01 06:36:54;;;;;;;12.87;9.93;;;;;;;23.37;97.66;99502.31;6203908;28;20080;-75
2021/08/01 06:39:54;;;;;;;10.77;9.57;;;;;;;23.51;95.57;99488.13;6204283;28;20468;-76
2021/08/01 06:42:55;;;;;;;17.80;9.77;;;;;;;23.60;94.13;99484.34;6223052;28;20054;-74
2021/08/01 06:45:56;;;;;;;13.67;9.50;;;;;;;23.68;94.44;99478.88;6228764;28;20046;-76
2021/08/01 06:48:57;;;;;;;13.30;9.30;;;;;;;23.71;92.98;99470.47;6207678;28;20061;-75
2021/08/01 06:51:58;;;;;;;12.40;9.37;;;;;;;23.78;92.02;99478.53;6237006;28;20489;-75
2021/08/01 06:54:59;;;;;;;14.00;9.73;;;;;;;23.86;91.73;99465.06;6219679;28;20069;-76
2021/08/01 06:57:59;;;;;;;10.33;8.80;;;;;;;23.94;91.75;99462.25;6211284;28;20389;-74
2021/08/01 07:01:02;;;;;;;12.47;8.90;;;;;;;24.07;92.54;99455.38;6228753;28;20251;-74
2021/08/01 07:04:03;;;;;;;10.02;8.57;;;;;;;24.18;90.37;99451.34;6235222;28;20038;-74
2021/08/01 07:07:03;;;;;;;13.70;8.60;;;;;;;24.21;88.02;99446.44;6235762;28;20038;-75
2021/08/01 07:10:04;;;;;;;15.47;8.67;;;;;;;24.31;89.38;99446.09;6211775;28;20115;-74
2021/08/01 07:13:08;;;;;;;10.65;8.75;;;;;;;24.42;89.64;99450.88;6244920;28;20472;-75
2021/08/01 07:16:08;;;;;;;14.63;9.10;;;;;;;24.51;88.98;99457.69;6226609;28;20159;-74
2021/08/01 07:19:10;;;;;;;16.40;9.60;;;;;;;24.59;87.54;99440.72;6243925;28;20476;-73
2021/08/01 07:22:10;;;;;;;16.40;8.55;;;;;;;24.67;87.87;99429.06;6244613;28;20279;-73
2021/08/01 07:25:11;;;;;;;15.33;9.20;;;;;;;24.70;88.35;99423.28;6244003;28;20483;-74
2021/08/01 07:28:12;;;;;;;11.27;8.63;;;;;;;24.84;85.73;99418.81;6211377;28;20045;-74
2021/08/01 07:31:13;;;;;;;16.03;8.47;;;;;;;24.90;86.80;99407.34;6243900;28;20049;-74
2021/08/01 07:34:13;;;;;;;13.30;8.80;;;;;;;24.94;87.16;99412.06;6245077;28;20134;-74
2021/08/01 07:37:17;;;;;;;14.17;8.87;;;;;;;25.08;83.73;99414.75;6227513;28;20048;-74
2021/08/01 07:40:18;;;;;;;14.38;8.60;;;;;;;25.06;84.63;99401.63;6227220;28;20127;-75
2021/08/01 07:43:19;;;;;;;12.45;8.40;;;;;;;25.14;84.33;99389.91;6230091;28;20053;-75
2021/08/01 07:46:20;;;;;;;14.80;9.40;;;;;;;25.23;82.68;99383.38;6248104;28;20052;-77
2021/08/01 07:49:22;;;;;;;16.45;8.45;;;;;;;25.29;83.25;99382.56;6249305;28;20037;-76
2021/08/01 07:52:23;;;;;;;13.02;7.93;;;;;;;25.34;83.11;99368.59;6247932;28;20499;-77
2021/08/01 07:55:24;;;;;;;12.20;8.68;;;;;;;25.40;82.94;99364.28;6231521;28;20073;-76
2021/08/01 07:58:25;;;;;;;10.10;7.72;;;;;;;25.49;83.37;99371.88;6249175;28;20522;-77
2021/08/01 08:01:25;;;;;;;15.63;8.10;;;;;;;25.57;82.25;99372.69;6215047;28;20057;-76
2021/08/01 08:04:26;;;;;;;13.93;8.57;;;;;;;25.64;80.54;99379.66;6231344;28;20290;-74
2021/08/01 08:07:27;;;;;;;16.27;8.20;;;;;;;25.75;80.76;99380.88;6247694;28;20048;-74
2021/08/01 08:10:27;;;;;;;16.00;7.90;;;;;;;25.81;79.08;99379.22;6248845;28;20282;-75
2021/08/01 08:13:28;;;;;;;14.80;8.43;;;;;;;25.86;80.84;99368.72;6214966;28;20567;-75
2021/08/01 08:16:29;;;;;;;10.30;7.47;;;;;;;25.98;78.60;99361.72;6231211;28;20327;-74
2021/08/01 08:19:30;;;;;;;10.73;7.68;;;;;;;26.03;76.04;99358.44;6248470;28;20072;-75
2021/08/01 08:22:30;;;;;;;13.32;7.70;;;;;;;26.08;77.66;99348.72;6240334;28;20484;-74
2021/08/01 08:25:31;;;;;;;13.97;7.17;;;;;;;26.08;77.37;99351.41;6235951;28;20046;-76
2021/08/01 08:28:32;;;;;;;9.02;7.18;;;;;;;26.27;74.93;99355.00;6240742;28;20168;-76
2021/08/01 08:31:33;;;;;;;9.63;7.37;;;;;;;26.28;73.42;99356.66;6217684;28;20041;-76
2021/08/01 08:34:34;;;;;;;8.70;6.87;;;;;;;26.34;75.88;99353.13;6225230;28;20781;-76
2021/08/01 08:37:45;;;;;;;11.00;6.75;;;;;;;26.38;74.01;99371.41;6233873;28;20286;-76
2021/08/01 08:40:46;;;;;;;;;;;;;;;26.47;72.96;99365.63;6214278;28;20057;-76
2021/08/01 08:43:47;;;;;;;8.43;6.77;;;;;;;26.59;74.49;99362.31;6234870;28;19921;-76
2021/08/01 08:46:48;;;;;;;10.93;6.57;;;;;;;26.71;73.04;99357.91;6238113;28;20050;-76
2021/08/01 08:49:50;;;;;;;10.63;6.57;;;;;;;26.86;71.32;99353.06;6219161;28;20626;-76
2021/08/01 08:52:57;;;;;;;8.70;6.30;;;;;;;26.91;70.62;99345.22;6211394;28;20037;-76
2021/08/01 08:55:58;;;;;;;9.77;5.63;;;;;;;27.04;67.60;99349.63;6232171;28;20447;-76
2021/08/01 08:58:59;;;;;;;11.73;6.60;;;;;;;27.03;70.07;99339.97;6212009;28;20149;-77
2021/08/01 09:02:00;;;;;;;7.75;5.45;;;;;;;27.11;64.36;99342.34;6214509;28;20373;-76
2021/08/01 09:05:02;;;;;;;11.68;6.47;;;;;;;27.12;67.17;99330.63;6237657;28;20104;-77
2021/08/01 09:08:03;;;;;;;9.23;5.97;;;;;;;27.21;67.90;99314.28;6210884;28;20555;-76
2021/08/01 09:11:04;;;;;;;7.45;5.90;;;;;;;27.24;67.08;99313.84;6220676;28;20061;-76
2021/08/01 09:14:05;;;;;;;15.65;6.85;;;;;;;27.25;68.21;99315.50;6202552;28;20037;-77
2021/08/01 09:21:38;;;;;;;10.30;5.47;;;;;;;27.12;65.45;99300.38;6181475;28;20049;-76
2021/08/01 09:24:40;;;;;;;9.07;6.28;;;;;;;27.11;66.60;99290.69;6204978;28;20550;-76
2021/08/01 09:27:40;;;;;;;;;;;;;;;27.12;67.14;99286.97;6222118;28;20266;-77
2021/08/01 09:30:47;;;;;;;6.23;5.30;;;;;;;27.19;66.85;99305.66;6221225;28;19922;-77
2021/08/01 09:33:51;;;;;;;7.55;5.10;;;;;;;27.40;63.54;99307.94;6224539;28;20050;-77
2021/08/01 09:37:00;;;;;;;7.70;4.97;;;;;;;27.42;62.82;99307.72;6234197;28;20049;-74
2021/08/01 09:40:19;;;;;;;6.78;5.38;;;;;;;27.44;64.40;99305.63;6245374;28;20041;-75
2021/08/01 09:43:21;;;;;;;6.97;5.45;;;;;;;27.42;63.56;99300.50;6245212;28;20061;-76
2021/08/01 09:46:37;;;;;;;7.50;5.05;;;;;;;27.58;64.37;99295.59;6246821;28;20045;-74
2021/08/01 09:49:37;;;;;;;7.03;4.85;;;;;;;27.67;61.83;99286.22;6245189;28;20051;-76
2021/08/01 09:52:39;;;;;;;11.15;5.60;;;;;;;27.70;64.47;99281.22;6245057;28;20046;-76
2021/08/01 09:55:39;;;;;;;7.35;5.05;;;;;;;27.88;66.72;99296.53;6245000;28;20103;-75
2021/08/01 09:58:41;;;;;;;5.90;5.07;;;;;;;27.87;63.31;99292.19;6236820;28;20038;-77
2021/08/01 10:01:50;;;;;;;8.65;4.93;;;;;;;27.93;63.45;99295.84;6242454;28;20147;-80
2021/08/01 10:04:50;;;;;;;11.07;5.07;;;;;;;28.07;65.64;99285.78;6226506;28;20048;-83
2021/08/01 10:07:51;;;;;;;8.10;5.05;;;;;;;28.22;58.61;99293.41;6222230;28;20124;-83
2021/08/01 10:11:07;;;;;;;7.13;4.43;;;;;;;28.16;58.51;99297.00;6239379;28;20065;-77
2021/08/01 10:14:08;;;;;;;6.82;4.80;;;;;;;27.97;60.33;99315.78;6222500;28;20045;-75
2021/08/01 10:17:09;;;;;;;6.10;4.72;;;;;;;27.84;63.91;99326.63;6244887;28;20052;-75
2021/08/01 10:20:10;;;;;;;7.82;5.40;;;;;;;27.58;65.63;99336.59;6228547;28;20045;-76
2021/08/01 10:23:12;;;;;;;14.32;5.45;;;;;;;27.38;66.90;99357.41;6226154;28;20038;-76
2021/08/01 10:26:15;;;;;;;6.75;4.88;;;;;;;27.31;66.18;99368.19;6220396;28;20077;-77
2021/08/01 10:29:30;;;;;;;9.68;4.90;;;;;;;27.32;65.94;99343.88;6232336;28;20049;-76
2021/08/01 10:32:34;;;;;;;7.53;5.00;;;;;;;27.51;66.75;99335.88;6236538;28;20100;-77
2021/08/01 10:35:41;;;;;;;7.00;4.82;;;;;;;27.56;65.28;99330.66;6219218;28;20385;-78
2021/08/01 10:38:43;;;;;;;7.47;5.20;;;;;;;27.53;65.35;99320.41;6236788;28;20037;-77
2021/08/01 10:41:44;;;;;;;6.65;4.63;;;;;;;27.55;64.20;99310.28;6235331;28;20045;-78
2021/08/01 10:44:46;;;;;;;6.53;5.10;;;;;;;27.66;65.70;99309.53;6233027;28;20524;-85
2021/08/01 10:47:51;;;;;;;7.97;4.45;;;;;;;27.71;64.16;99292.75;6202617;28;20046;-82
2021/08/01 10:50:54;;;;;;;7.18;4.93;;;;;;;27.79;63.35;99275.56;6227847;28;20052;-77
2021/08/01 10:54:20;;;;;;;9.90;4.95;;;;;;;27.98;63.81;99279.06;6225729;28;20108;-78
2021/08/01 10:57:22;;;;;;;9.25;4.93;;;;;;;27.99;64.04;99259.28;6242558;28;20535;-79
2021/08/01 11:00:23;;;;;;;11.10;4.88;;;;;;;28.04;63.55;99244.13;6243265;28;20038;-78
2021/08/01 11:03:24;;;;;;;10.75;5.00;;;;;;;28.11;65.32;99223.41;6243510;28;20057;-77
2021/08/01 11:06:43;;;;;;;9.50;5.10;;;;;;;28.21;64.96;99211.31;6243625;28;20046;-77
2021/08/01 11:10:04;;;;;;;9.07;5.00;;;;;;;28.19;66.07;99194.63;6243894;28;20057;-78
2021/08/01 11:13:29;;;;;;;8.10;5.07;;;;;;;28.41;65.62;99195.72;6244720;28;20061;-78
2021/08/01 11:16:30;;;;;;;8.07;5.45;;;;;;;28.41;62.33;99182.31;6246324;28;20072;-77
2021/08/01 11:19:33;;;;;;;7.13;5.18;;;;;;;28.50;63.64;99172.09;6249410;28;20045;-79
2021/08/01 11:22:40;;;;;;;8.18;4.50;;;;;;;28.70;60.45;99169.91;6231739;28;20068;-78
2021/08/01 11:25:42;;;;;;;10.10;5.38;;;;;;;28.84;62.16;99170.44;6232132;28;20060;-77
2021/08/01 11:29:03;;;;;;;9.50;5.32;;;;;;;29.03;59.96;99159.56;6248734;28;20042;-76
2021/08/01 11:32:08;;;;;;;9.57;4.90;;;;;;;29.20;62.18;99152.47;6254353;28;20458;-75
2021/08/01 11:35:17;;;;;;;7.45;4.90;;;;;;;29.26;61.68;99139.94;6212575;28;20088;-76
2021/08/01 11:38:17;;;;;;;6.82;5.35;;;;;;;29.46;62.05;99131.47;6239318;28;20038;-76
2021/08/01 11:41:34;;;;;;;6.10;5.50;;;;;;;29.67;59.12;99132.66;6223212;28;20128;-76
2021/08/01 11:45:06;;;;;;;10.05;5.10;;;;;;;29.73;59.97;99127.19;6239390;28;20049;-76
2021/08/01 11:48:08;;;;;;;8.73;5.35;;;;;;;30.19;57.48;99120.97;6245260;28;20041;-77
2021/08/01 11:51:09;;;;;;;7.63;4.78;;;;;;;30.99;56.42;99129.66;6232788;28;20049;-76
2021/08/01 11:54:11;;;;;;;6.95;5.18;;;;;;;31.75;52.87;99128.94;6214067;28;20045;-75
2021/08/01 11:57:14;;;;;;;8.90;5.40;;;;;;;32.91;49.33;99127.41;6234859;28;20045;-76
2021/08/01 12:00:16;;;;;;;11.35;5.22;;;;;;;34.12;46.43;99122.59;6247186;28;20034;-77
2021/08/01 12:03:24;;;;;;;8.50;4.93;;;;;;;34.35;44.87;99123.16;6222520;28;20046;-75
2021/08/01 12:06:52;;;;;;;6.03;4.63;;;;;;;33.43;46.89;99121.13;6223710;28;20046;-77
2021/08/01 12:09:53;;;;;;;7.93;5.40;;;;;;;33.85;46.44;99120.16;6220265;28;20496;-78
2021/08/01 12:12:56;;;;;;;;;;;;;;;34.15;45.80;99115.84;6206634;28;20048;-79
2021/08/01 12:15:57;;;;;;;9.38;4.63;;;;;;;34.10;44.66;99103.09;6206966;28;19921;-77
2021/08/01 12:19:16;;;;;;;;;;;;;;;36.08;41.09;99104.47;6207252;28;20541;-77
2021/08/01 12:22:20;;;;;;;9.70;4.43;;;;;;;36.78;38.51;99089.66;6212812;28;19936;-77
2021/08/01 12:25:27;;;;;;;6.95;5.05;;;;;;;36.41;38.69;99083.00;6225481;28;20057;-78
2021/08/01 12:28:40;;;;;;;6.10;4.10;;;;;;;37.44;36.88;99070.88;6221026;28;20064;-78
2021/08/01 12:31:41;;;;;;;9.00;4.40;;;;;;;34.87;41.90;99073.19;6231935;28;20064;-85
2021/08/01 12:34:42;;;;;;;7.00;4.43;;;;;;;33.41;46.13;99073.81;6231702;28;20453;-83
2021/08/01 12:38:03;;;;;;;5.60;4.13;;;;;;;32.31;49.25;99075.47;6248453;28;20038;-83
2021/08/01 12:41:12;;;;;;;5.93;4.35;;;;;;;31.61;52.72;99085.38;6248167;28;20091;-85
2021/08/01 12:44:14;;;;;;;11.88;4.78;;;;;;;31.02;54.13;99078.81;6231618;28;20407;-84
2021/08/01 12:47:15;;;;;;;6.63;3.90;;;;;;;30.78;52.09;99074.72;6248266;28;20064;-80
2021/08/01 12:50:16;;;;;;;;;;;;;;;30.84;51.56;99071.03;6232161;28;20037;-80
2021/08/01 12:53:22;;;;;;;9.48;4.63;;;;;;;30.81;52.14;99069.66;6228671;28;19951;-80
2021/08/01 12:56:22;;;;;;;7.47;4.28;;;;;;;30.93;50.97;99054.22;6241513;28;20033;-81
2021/08/01 12:59:23;;;;;;;12.65;4.10;;;;;;;31.08;50.17;99042.78;6213291;28;20040;-82
2021/08/01 13:02:27;;;;;;;;;;;;;;;31.08;50.71;99040.09;6215623;28;20377;-86
2021/08/01 13:05:33;;;;;;;4.60;3.83;;;;;;;31.10;50.17;99034.47;6246840;28;20423;-87
2021/08/01 13:08:44;;;;;;;6.22;4.35;;;;;;;31.13;52.15;99028.56;6214221;28;20452;-80
2021/08/01 13:11:45;;;;;;;6.72;4.00;;;;;;;31.07;50.01;99022.31;6232301;28;20396;-81
2021/08/01 13:14:46;;;;;;;;;;;;;;;30.96;49.87;99012.50;6231500;28;20042;-83
2021/08/01 13:17:46;;;;;;;4.47;3.90;;;;;;;30.75;51.64;99006.03;6258288;28;19921;-81
2021/08/01 13:20:47;;;;;;;8.27;3.80;;;;;;;30.71;52.27;99003.03;6227381;28;20042;-80
2021/08/01 13:23:52;;;;;;;17.88;4.88;;;;;;;30.87;51.92;98998.66;6223131;28;20104;-82
2021/08/01 13:27:01;;;;;;;11.40;4.38;;;;;;;31.00;51.49;98992.06;6246234;28;20052;-81
2021/08/01 13:30:18;;;;;;;8.63;3.83;;;;;;;30.92;52.28;98976.34;6229131;28;20076;-81
2021/08/01 13:33:19;;;;;;;6.82;3.70;;;;;;;30.84;55.50;98974.88;6245383;28;20037;-82
2021/08/01 13:36:20;;;;;;;;;;;;;;;30.78;53.54;98969.72;6229372;28;20069;-80
2021/08/01 13:39:27;;;;;;;6.43;4.33;;;;;;;30.59;54.11;98953.88;6229011;28;20010;-80
2021/08/01 13:42:41;;;;;;;8.68;4.20;;;;;;;30.52;54.83;98937.94;6238655;28;20290;-80
2021/08/01 13:45:43;;;;;;;7.05;4.30;;;;;;;30.31;54.62;98925.28;6239628;28;20037;-80
2021/08/01 13:48:44;;;;;;;6.10;3.90;;;;;;;30.13;57.58;98913.75;6210373;28;20053;-80
2021/08/01 13:51:44;;;;;;;7.72;3.70;;;;;;;29.92;57.03;98915.38;6205294;28;20119;-80
2021/08/01 13:54:45;;;;;;;;;;;;;;;29.79;56.88;98898.75;6206951;28;20124;-80
2021/08/01 13:57:47;;;;;;;7.43;3.50;;;;;;;29.79;56.87;98880.75;6190226;28;19932;-80
2021/08/01 14:00:48;;;;;;;10.05;3.95;;;;;;;29.75;57.25;98865.38;6234216;28;20048;-81
2021/08/01 14:03:49;;;;;;;5.72;4.10;;;;;;;29.65;57.09;98850.72;6227999;28;20132;-80
2021/08/01 14:06:49;;;;;;;5.57;3.90;;;;;;;29.54;57.27;98844.34;6212420;28;20046;-80
2021/08/01 14:09:51;;;;;;;6.07;3.70;;;;;;;29.45;58.15;98840.47;6240345;28;20045;-80
2021/08/01 14:12:52;;;;;;;5.00;3.53;;;;;;;29.41;57.08;98833.16;6244452;28;20061;-79
2021/08/01 14:15:54;;;;;;;8.82;3.63;;;;;;;29.23;57.82;98824.28;6202226;28;20068;-80
2021/08/01 14:18:55;;;;;;;6.15;3.50;;;;;;;29.18;57.94;98796.53;6221213;28;20522;-79